createdAt,value
2019-02-25T00:01:36.555Z,15.95
2019-02-25T00:04:08.051Z,10.90
2019-02-25T00:06:39.563Z,13.95
2019-02-25T00:09:10.905Z,12.47
2019-02-25T00:11:42.669Z,13.35
2019-02-25T00:14:13.994Z,11.97
2019-02-25T00:16:45.446Z,9.45
2019-02-25T00:19:16.771Z,11.12
2019-02-25T00:21:48.248Z,12.07
2019-02-25T00:24:19.558Z,11.22
2019-02-25T00:26:50.923Z,9.95
2019-02-25T00:29:22.334Z,11.50
2019-02-25T00:31:53.595Z,12.75
2019-02-25T00:34:24.990Z,12.90
2019-02-25T00:36:56.441Z,12.60
2019-02-25T00:39:27.754Z,13.72
2019-02-25T00:41:59.113Z,12.20
2019-02-25T00:44:30.598Z,11.30
2019-02-25T00:47:02.022Z,11.00
2019-02-25T00:49:33.601Z,13.45
2019-02-25T00:52:05.070Z,12.07
2019-02-25T00:54:36.593Z,11.08
2019-02-25T00:57:09.017Z,11.68
2019-02-25T00:59:41.039Z,12.10
2019-02-25T01:02:12.396Z,12.20
2019-02-25T01:04:43.646Z,13.13
2019-02-25T01:07:14.963Z,13.65
2019-02-25T01:09:46.422Z,13.05
2019-02-25T01:12:17.913Z,13.10
2019-02-25T01:14:49.308Z,11.05
2019-02-25T01:17:20.765Z,12.75
2019-02-25T01:19:51.990Z,12.65
2019-02-25T01:22:23.325Z,14.25
2019-02-25T01:24:54.662Z,10.23
2019-02-25T01:27:26.167Z,11.88
2019-02-25T01:29:57.496Z,11.68
2019-02-25T01:32:29.004Z,13.50
2019-02-25T01:35:00.330Z,10.05
2019-02-25T01:37:31.956Z,16.70
2019-02-25T01:40:03.510Z,16.57
2019-02-25T01:42:34.812Z,18.87
2019-02-25T01:45:09.337Z,17.80
2019-02-25T01:47:40.724Z,19.77
2019-02-25T01:50:12.208Z,15.15
2019-02-25T01:52:43.528Z,15.83
2019-02-25T01:55:14.869Z,15.88
2019-02-25T01:57:46.227Z,15.38
2019-02-25T02:00:18.798Z,17.50
2019-02-25T02:02:50.263Z,15.03
2019-02-25T02:05:21.687Z,14.58
2019-02-25T02:07:53.020Z,15.65
2019-02-25T02:10:24.345Z,13.83
2019-02-25T02:12:55.689Z,15.03
2019-02-25T02:15:27.355Z,14.53
2019-02-25T02:17:58.864Z,15.58
2019-02-25T02:20:30.206Z,16.07
2019-02-25T02:23:01.546Z,13.75
2019-02-25T02:25:32.992Z,13.48
2019-02-25T02:28:04.335Z,13.58
2019-02-25T02:30:35.674Z,13.48
2019-02-25T02:33:07.095Z,14.28
2019-02-25T02:35:38.500Z,13.22
2019-02-25T02:38:09.827Z,15.05
2019-02-25T02:40:41.193Z,13.93
2019-02-25T02:43:12.526Z,13.03
2019-02-25T02:45:49.707Z,14.95
2019-02-25T02:48:24.328Z,15.10
2019-02-25T02:50:55.639Z,15.38
2019-02-25T02:53:26.964Z,14.15
2019-02-25T02:55:58.358Z,11.63
2019-02-25T02:58:29.847Z,15.43
2019-02-25T03:01:01.318Z,15.75
2019-02-25T03:03:32.644Z,14.15
2019-02-25T03:06:04.021Z,11.93
2019-02-25T03:08:35.398Z,14.85
2019-02-25T03:11:06.724Z,11.22
2019-02-25T03:13:38.160Z,15.63
2019-02-25T03:16:09.594Z,14.63
2019-02-25T03:18:40.953Z,15.53
2019-02-25T03:21:12.242Z,15.48
2019-02-25T03:23:43.577Z,16.62
2019-02-25T03:26:16.000Z,15.40
2019-02-25T03:28:47.457Z,15.10
2019-02-25T03:31:18.814Z,15.85
2019-02-25T03:33:50.257Z,17.25
2019-02-25T03:36:21.604Z,16.65
2019-02-25T03:38:52.935Z,15.40
2019-02-25T03:41:24.404Z,15.65
2019-02-25T03:43:55.793Z,16.37
2019-02-25T03:46:27.083Z,17.27
2019-02-25T03:48:58.546Z,18.48
2019-02-25T03:51:29.869Z,17.05
2019-02-25T03:54:01.310Z,19.07
2019-02-25T03:56:32.788Z,19.00
2019-02-25T03:59:04.234Z,19.62
2019-02-25T04:01:35.704Z,19.10
2019-02-25T04:04:07.124Z,19.32
2019-02-25T04:06:38.518Z,18.12
2019-02-25T04:09:09.888Z,18.07
2019-02-25T04:11:41.228Z,19.73
2019-02-25T04:14:12.647Z,16.60
2019-02-25T04:16:44.067Z,15.93
2019-02-25T04:19:15.537Z,15.60
2019-02-25T04:21:46.987Z,17.23
2019-02-25T04:24:18.200Z,16.45
2019-02-25T04:26:50.728Z,19.42
2019-02-25T04:29:22.048Z,20.85
2019-02-25T04:31:53.462Z,18.87
2019-02-25T04:34:26.195Z,18.15
2019-02-25T04:36:57.634Z,18.32
2019-02-25T04:39:29.070Z,17.67
2019-02-25T04:42:00.408Z,17.65
2019-02-25T04:44:31.869Z,17.48
2019-02-25T04:47:03.345Z,16.50
2019-02-25T04:49:34.703Z,16.00
2019-02-25T04:52:06.122Z,12.35
2019-02-25T04:54:37.573Z,16.45
2019-02-25T04:57:09.031Z,15.43
2019-02-25T04:59:40.578Z,15.48
2019-02-25T05:02:12.028Z,17.75
2019-02-25T05:04:43.575Z,16.27
2019-02-25T05:07:15.030Z,16.25
2019-02-25T05:09:46.488Z,14.65
2019-02-25T05:12:17.891Z,16.73
2019-02-25T05:14:49.202Z,11.08
2019-02-25T05:17:20.555Z,16.48
2019-02-25T05:19:51.919Z,13.48
2019-02-25T05:22:23.265Z,16.48
2019-02-25T05:24:54.618Z,16.37
2019-02-25T05:27:25.977Z,17.05
2019-02-25T05:29:57.300Z,16.57
2019-02-25T05:32:28.699Z,15.48
2019-02-25T05:35:00.015Z,11.30
2019-02-25T05:37:31.443Z,15.80
2019-02-25T05:40:02.797Z,13.65
2019-02-25T05:42:34.216Z,10.98
2019-02-25T05:45:06.086Z,14.10
2019-02-25T05:47:37.449Z,15.05
2019-02-25T05:50:17.350Z,18.07
2019-02-25T05:52:48.822Z,16.93
2019-02-25T05:55:20.270Z,20.48
2019-02-25T05:57:51.646Z,17.80
2019-02-25T06:00:25.567Z,19.05
2019-02-25T06:02:56.977Z,18.17
2019-02-25T06:05:28.334Z,17.55
2019-02-25T06:07:59.794Z,17.30
2019-02-25T06:10:31.224Z,19.48
2019-02-25T06:13:03.674Z,18.90
2019-02-25T06:15:35.170Z,18.52
2019-02-25T06:18:06.704Z,19.23
2019-02-25T06:20:38.157Z,18.40
2019-02-25T06:23:09.614Z,16.90
2019-02-25T06:25:41.138Z,17.20
2019-02-25T06:28:12.491Z,19.40
2019-02-25T06:30:43.869Z,19.00
2019-02-25T06:33:15.321Z,21.10
2019-02-25T06:35:46.670Z,19.50
2019-02-25T06:38:18.092Z,20.85
2019-02-25T06:40:49.461Z,18.95
2019-02-25T06:43:20.899Z,19.17
2019-02-25T06:45:52.345Z,18.65
2019-02-25T06:48:23.642Z,19.92
2019-02-25T06:50:55.043Z,20.43
2019-02-25T06:53:26.379Z,20.30
2019-02-25T06:55:57.820Z,20.65
2019-02-25T06:58:29.287Z,21.02
2019-02-25T07:01:00.751Z,23.57
2019-02-25T07:03:32.189Z,17.23
2019-02-25T07:06:09.043Z,23.75
2019-02-25T07:08:44.914Z,23.85
2019-02-25T07:11:17.980Z,23.15
2019-02-25T07:14:07.396Z,25.85
2019-02-25T07:16:52.597Z,23.22
2019-02-25T07:19:37.629Z,24.85
2019-02-25T07:22:19.705Z,25.62
2019-02-25T07:24:53.188Z,24.10
2019-02-25T07:27:35.250Z,28.10
2019-02-25T07:30:23.306Z,26.55
2019-02-25T07:32:56.278Z,29.52
2019-02-25T07:35:41.422Z,29.98
2019-02-25T07:38:39.031Z,28.38
2019-02-25T07:41:14.255Z,27.93
2019-02-25T07:43:50.086Z,32.40
2019-02-25T07:46:32.117Z,29.52
2019-02-25T07:49:10.764Z,29.42
2019-02-25T07:51:49.421Z,45.75
2019-02-25T07:54:22.309Z,26.45
2019-02-25T07:57:01.316Z,27.95
2019-02-25T07:59:34.229Z,29.05
2019-02-25T08:02:08.345Z,25.90
2019-02-25T08:04:47.210Z,24.92
2019-02-25T08:07:36.549Z,23.07
2019-02-25T08:10:17.235Z,22.07
2019-02-25T08:12:50.138Z,23.73
2019-02-25T08:15:23.068Z,27.98
2019-02-25T08:18:06.263Z,19.65
2019-02-25T08:20:39.774Z,21.17
2019-02-25T08:23:12.706Z,19.48
2019-02-25T08:25:48.524Z,18.32
2019-02-25T08:28:39.416Z,17.60
2019-02-25T08:31:12.313Z,19.48
2019-02-25T08:33:45.207Z,17.52
2019-02-25T08:36:47.003Z,16.25
2019-02-25T08:39:20.039Z,17.75
2019-02-25T08:42:01.983Z,16.10
2019-02-25T08:44:46.525Z,19.62
2019-02-25T08:47:22.450Z,20.82
2019-02-25T08:49:55.399Z,17.23
2019-02-25T08:52:26.748Z,19.00
2019-02-25T08:54:58.221Z,19.35
2019-02-25T08:57:29.471Z,16.80
2019-02-25T09:00:00.928Z,17.90
2019-02-25T09:05:03.379Z,17.82
2019-02-25T09:07:34.832Z,16.15
2019-02-25T09:10:09.577Z,16.67
2019-02-25T09:12:40.955Z,20.85
2019-02-25T09:15:14.211Z,21.68
2019-02-25T09:17:45.384Z,20.35
2019-02-25T09:20:16.914Z,21.15
2019-02-25T09:22:48.310Z,22.93
2019-02-25T09:25:19.682Z,17.80
2019-02-25T09:27:51.172Z,26.10
2019-02-25T09:30:22.607Z,22.15
2019-02-25T09:32:54.067Z,20.88
2019-02-25T09:35:25.517Z,16.00
2019-02-25T09:37:56.862Z,19.73
2019-02-25T09:40:28.192Z,21.40
2019-02-25T09:42:59.657Z,22.45
2019-02-25T09:45:30.985Z,20.55
2019-02-25T09:48:02.320Z,23.10
2019-02-25T09:50:33.707Z,22.20
2019-02-25T09:53:07.184Z,20.75
2019-02-25T09:55:38.192Z,21.25
2019-02-25T09:58:09.654Z,24.05
2019-02-25T10:00:41.256Z,21.93
2019-02-25T10:03:13.793Z,21.93
2019-02-25T10:05:46.328Z,23.07
2019-02-25T10:08:17.916Z,21.95
2019-02-25T10:10:50.425Z,23.75
2019-02-25T10:13:21.867Z,25.08
2019-02-25T10:15:53.350Z,25.57
2019-02-25T10:18:24.766Z,22.30
2019-02-25T10:20:56.230Z,17.52
2019-02-25T10:23:27.526Z,19.48
2019-02-25T10:25:58.918Z,29.48
2019-02-25T10:28:30.508Z,25.32
2019-02-25T10:31:01.821Z,23.75
2019-02-25T10:33:33.277Z,23.90
2019-02-25T10:36:04.728Z,17.98
2019-02-25T10:38:37.577Z,23.30
2019-02-25T10:41:09.365Z,23.42
2019-02-25T10:43:40.846Z,24.43
2019-02-25T10:46:15.478Z,22.85
2019-02-25T10:48:47.444Z,24.27
2019-02-25T10:51:19.743Z,22.45
2019-02-25T10:53:51.997Z,22.75
2019-02-25T10:56:27.319Z,22.73
2019-02-25T10:59:00.171Z,22.05
2019-02-25T11:01:31.745Z,23.02
2019-02-25T11:04:03.162Z,25.05
2019-02-25T11:06:36.006Z,24.50
2019-02-25T11:09:22.959Z,26.12
2019-02-25T11:11:55.439Z,27.32
2019-02-25T11:14:27.291Z,23.18
2019-02-25T11:16:58.754Z,25.75
2019-02-25T11:19:30.769Z,25.92
2019-02-25T11:22:03.115Z,24.15
2019-02-25T11:24:35.565Z,24.85
2019-02-25T11:27:07.402Z,23.12
2019-02-25T11:32:10.978Z,26.48
2019-02-25T11:34:42.486Z,22.82
2019-02-25T11:37:14.555Z,20.75
2019-02-25T11:39:46.987Z,23.00
2019-02-25T11:42:20.531Z,27.90
2019-02-25T11:44:52.398Z,31.27
2019-02-25T11:47:24.711Z,25.95
2019-02-25T11:49:56.199Z,25.60
2019-02-25T11:52:27.553Z,29.15
2019-02-25T11:54:58.998Z,24.27
2019-02-25T11:57:31.388Z,26.15
2019-02-25T12:00:02.839Z,28.05
2019-02-25T12:05:08.839Z,25.95
2019-02-25T12:07:40.354Z,25.35
2019-02-25T12:10:13.818Z,23.25
2019-02-25T12:12:45.189Z,25.60
2019-02-25T12:15:23.887Z,25.08
2019-02-25T12:17:55.265Z,23.27
2019-02-25T12:20:26.718Z,22.20
2019-02-25T12:22:58.047Z,25.35
2019-02-25T12:25:29.803Z,25.08
2019-02-25T12:28:01.163Z,23.12
2019-02-25T12:30:32.643Z,24.57
2019-02-25T12:33:04.079Z,28.75
2019-02-25T12:35:35.380Z,26.37
2019-02-25T12:38:06.781Z,26.65
2019-02-25T12:40:38.224Z,24.25
2019-02-25T12:43:09.664Z,19.23
2019-02-25T12:45:42.455Z,24.75
2019-02-25T12:48:13.940Z,23.92
2019-02-25T12:50:45.551Z,24.87
2019-02-25T12:53:16.871Z,23.85
2019-02-25T12:55:48.358Z,49.40
2019-02-25T12:58:19.661Z,27.67
2019-02-25T13:00:51.028Z,28.12
2019-02-25T13:03:22.509Z,25.40
2019-02-25T13:05:54.972Z,24.82
2019-02-25T13:08:26.420Z,23.62
2019-02-25T13:10:57.735Z,26.70
2019-02-25T13:13:29.129Z,27.00
2019-02-25T13:16:00.660Z,27.50
2019-02-25T13:18:31.975Z,28.73
2019-02-25T13:21:03.290Z,27.90
2019-02-25T13:23:34.717Z,19.70
2019-02-25T13:26:07.426Z,27.35
2019-02-25T13:28:39.242Z,26.93
2019-02-25T13:31:10.710Z,28.42
2019-02-25T13:33:42.604Z,25.60
2019-02-25T13:36:14.101Z,26.12
2019-02-25T13:38:45.578Z,27.73
2019-02-25T13:41:17.023Z,28.92
2019-02-25T13:43:48.386Z,31.90
2019-02-25T13:46:19.704Z,31.65
2019-02-25T13:48:51.165Z,33.05
2019-02-25T13:51:22.696Z,33.08
2019-02-25T13:53:54.161Z,34.67
2019-02-25T13:56:25.605Z,34.08
2019-02-25T13:58:56.915Z,36.58
2019-02-25T14:01:28.984Z,35.23
2019-02-25T14:04:00.476Z,34.40
2019-02-25T14:06:31.927Z,30.17
2019-02-25T14:09:03.889Z,31.25
2019-02-25T14:11:36.875Z,33.38
2019-02-25T14:14:08.197Z,32.58
2019-02-25T14:16:39.543Z,31.45
2019-02-25T14:19:11.058Z,30.97
2019-02-25T14:21:42.427Z,33.92
2019-02-25T14:24:13.799Z,32.93
2019-02-25T14:26:45.260Z,33.42
2019-02-25T14:29:16.592Z,33.18
2019-02-25T14:31:48.952Z,34.70
2019-02-25T14:34:21.167Z,36.17
2019-02-25T14:36:54.425Z,39.67
2019-02-25T14:39:28.456Z,35.37
2019-02-25T14:41:59.215Z,33.67
2019-02-25T14:44:33.176Z,31.33
2019-02-25T14:47:05.453Z,31.10
2019-02-25T14:49:39.845Z,33.50
2019-02-25T14:52:11.091Z,32.93
2019-02-25T14:54:42.525Z,33.28
2019-02-25T14:57:13.942Z,31.50
2019-02-25T14:59:45.307Z,30.37
2019-02-25T15:02:17.774Z,32.08
2019-02-25T15:04:49.209Z,34.53
2019-02-25T15:07:20.651Z,34.73
2019-02-25T15:09:51.979Z,34.70
2019-02-25T15:12:23.663Z,28.42
2019-02-25T15:14:57.660Z,40.00
2019-02-25T15:17:29.590Z,38.98
2019-02-25T15:20:01.076Z,35.17
2019-02-25T15:22:36.181Z,34.63
2019-02-25T15:25:10.163Z,36.60
2019-02-25T15:27:41.487Z,37.38
2019-02-25T15:30:25.609Z,35.60
2019-02-25T15:32:58.906Z,38.55
2019-02-25T15:35:34.075Z,41.63
2019-02-25T15:38:04.172Z,38.75
2019-02-25T15:40:35.627Z,43.60
2019-02-25T15:43:15.867Z,46.48
2019-02-25T15:45:46.435Z,46.02
2019-02-25T15:48:22.238Z,46.60
2019-02-25T15:50:57.956Z,50.58
2019-02-25T15:53:28.538Z,46.30
2019-02-25T15:56:01.538Z,49.58
2019-02-25T15:58:32.937Z,48.48
2019-02-25T16:01:04.273Z,51.58
2019-02-25T16:03:36.810Z,49.88
2019-02-25T16:06:10.149Z,53.80
2019-02-25T16:08:42.100Z,55.48
2019-02-25T16:11:14.038Z,49.50
2019-02-25T16:13:46.666Z,52.78
2019-02-25T16:16:19.923Z,52.58
2019-02-25T16:18:53.492Z,54.75
2019-02-25T16:21:26.652Z,58.35
2019-02-25T16:23:59.615Z,58.28
2019-02-25T16:26:32.121Z,55.08
2019-02-25T16:29:06.618Z,51.02
2019-02-25T16:31:37.725Z,51.77
2019-02-25T16:34:12.051Z,47.27
2019-02-25T16:36:45.182Z,52.17
2019-02-25T16:39:17.714Z,62.00
2019-02-25T16:41:49.087Z,39.85
2019-02-25T16:44:20.441Z,50.50
2019-02-25T16:46:53.974Z,57.80
2019-02-25T16:49:25.006Z,50.48
2019-02-25T16:51:59.389Z,58.48
2019-02-25T16:54:30.603Z,54.00
2019-02-25T16:57:02.051Z,52.30
2019-02-25T16:59:33.409Z,39.20
2019-02-25T17:02:06.890Z,57.50
2019-02-25T17:04:37.827Z,53.98
2019-02-25T17:07:09.401Z,54.15
2019-02-25T17:09:42.808Z,55.23
2019-02-25T17:12:13.900Z,49.33
2019-02-25T17:17:16.315Z,58.60
2019-02-25T17:19:47.664Z,62.33
2019-02-25T17:22:18.969Z,45.03
2019-02-25T17:24:52.408Z,62.45
2019-02-25T17:27:23.432Z,69.40
2019-02-25T17:29:55.606Z,55.85
2019-02-25T17:32:27.959Z,54.53
2019-02-25T17:35:00.522Z,54.20
2019-02-25T17:37:33.831Z,49.77
2019-02-25T17:40:13.036Z,53.75
2019-02-25T17:42:44.952Z,47.62
2019-02-25T17:45:32.553Z,50.00
2019-02-25T17:48:08.081Z,46.95
2019-02-25T17:50:38.887Z,46.65
2019-02-25T17:53:11.469Z,49.48
2019-02-25T17:55:43.400Z,53.95
2019-02-25T17:58:15.596Z,48.10
2019-02-25T18:00:48.015Z,54.23
2019-02-25T18:03:19.551Z,53.50
2019-02-25T18:05:51.887Z,49.60
2019-02-25T18:08:23.307Z,55.60
2019-02-25T18:10:54.966Z,49.73
2019-02-25T18:13:28.162Z,53.13
2019-02-25T18:15:59.939Z,57.23
2019-02-25T18:18:31.324Z,61.40
2019-02-25T18:21:02.649Z,65.85
2019-02-25T18:23:34.461Z,59.70
2019-02-25T18:26:07.033Z,57.08
2019-02-25T18:28:39.706Z,62.98
2019-02-25T18:31:13.330Z,68.65
2019-02-25T18:33:46.251Z,63.92
2019-02-25T18:36:17.697Z,67.40
2019-02-25T18:38:50.669Z,64.97
2019-02-25T18:41:23.173Z,66.75
2019-02-25T18:43:55.542Z,64.40
2019-02-25T18:46:29.384Z,64.62
2019-02-25T18:49:03.016Z,66.70
2019-02-25T18:51:37.355Z,62.00
2019-02-25T18:54:08.486Z,65.35
2019-02-25T18:56:40.827Z,64.60
2019-02-25T18:59:15.492Z,65.57
2019-02-25T19:01:47.601Z,56.68
2019-02-25T19:04:19.822Z,62.20
2019-02-25T19:06:52.251Z,66.97
2019-02-25T19:09:25.553Z,57.05
2019-02-25T19:11:57.897Z,61.30
2019-02-25T19:14:31.146Z,56.58
2019-02-25T19:17:04.836Z,52.17
2019-02-25T19:19:38.172Z,51.42
2019-02-25T19:22:10.664Z,54.85
2019-02-25T19:24:42.829Z,51.10
2019-02-25T19:27:15.198Z,60.33
2019-02-25T19:29:49.197Z,45.50
2019-02-25T19:32:20.992Z,51.08
2019-02-25T19:34:54.092Z,58.42
2019-02-25T19:37:28.853Z,55.48
2019-02-25T19:39:59.035Z,52.70
2019-02-25T19:42:31.302Z,60.38
2019-02-25T19:45:05.785Z,58.48
2019-02-25T19:47:37.867Z,65.87
2019-02-25T19:50:18.927Z,56.88
2019-02-25T19:52:50.441Z,68.63
2019-02-25T19:55:23.474Z,51.80
2019-02-25T19:57:54.862Z,71.02
2019-02-25T20:00:29.746Z,73.80
2019-02-25T20:03:05.467Z,75.17
2019-02-25T20:05:38.886Z,77.53
2019-02-25T20:08:09.613Z,64.65
2019-02-25T20:10:42.850Z,73.20
2019-02-25T20:13:14.196Z,70.72
2019-02-25T20:15:46.788Z,77.30
2019-02-25T20:18:18.560Z,67.27
2019-02-25T20:20:50.297Z,72.60
2019-02-25T20:23:22.817Z,56.33
2019-02-25T20:25:55.743Z,75.78
2019-02-25T20:28:28.231Z,75.50
2019-02-25T20:30:59.978Z,73.62
2019-02-25T20:33:32.997Z,66.20
2019-02-25T20:36:04.504Z,65.97
2019-02-25T20:38:37.292Z,62.10
2019-02-25T20:41:09.070Z,61.77
2019-02-25T20:43:41.626Z,64.07
2019-02-25T20:46:13.009Z,45.88
2019-02-25T20:48:46.758Z,65.10
2019-02-25T20:51:17.511Z,62.17
2019-02-25T20:53:50.708Z,67.72
2019-02-25T20:56:22.466Z,65.67
2019-02-25T20:58:55.141Z,65.65
2019-02-25T21:01:27.439Z,71.62
2019-02-25T21:03:59.188Z,62.00
2019-02-25T21:06:30.633Z,55.00
2019-02-25T21:09:02.458Z,49.90
2019-02-25T21:11:36.698Z,51.37
2019-02-25T21:14:08.109Z,40.95
2019-02-25T21:16:39.414Z,52.78
2019-02-25T21:19:12.711Z,52.90
2019-02-25T21:21:43.937Z,49.03
2019-02-25T21:24:15.390Z,49.27
2019-02-25T21:26:46.665Z,46.40
2019-02-25T21:29:18.070Z,47.50
2019-02-25T21:31:50.046Z,48.98
2019-02-25T21:34:24.378Z,46.60
2019-02-25T21:36:56.278Z,43.63
2019-02-25T21:39:28.705Z,48.02
2019-02-25T21:42:00.023Z,45.48
2019-02-25T21:44:31.668Z,46.63
2019-02-25T21:47:03.789Z,48.78
2019-02-25T21:49:38.191Z,49.77
2019-02-25T21:52:10.866Z,47.65
2019-02-25T21:54:42.459Z,49.18
2019-02-25T21:57:14.589Z,49.25
2019-02-25T21:59:46.136Z,49.13
2019-02-25T22:02:18.586Z,48.95
2019-02-25T22:04:51.742Z,52.35
2019-02-25T22:07:25.001Z,50.63
2019-02-25T22:09:56.178Z,53.00
2019-02-25T22:12:30.849Z,46.88
2019-02-25T22:15:00.608Z,48.28
2019-02-25T22:17:32.112Z,53.48
2019-02-25T22:20:09.651Z,51.15
2019-02-25T22:22:40.267Z,50.20
2019-02-25T22:25:19.419Z,53.08
2019-02-25T22:27:50.668Z,52.85
2019-02-25T22:30:23.141Z,55.30
2019-02-25T22:32:54.557Z,55.35
2019-02-25T22:35:25.918Z,55.83
2019-02-25T22:37:58.171Z,54.13
2019-02-25T22:40:32.231Z,49.30
2019-02-25T22:43:03.529Z,52.75
2019-02-25T22:45:36.010Z,52.30
2019-02-25T22:48:07.939Z,51.77
2019-02-25T22:50:39.288Z,50.73
2019-02-25T22:53:11.287Z,52.62
2019-02-25T22:55:44.941Z,54.70
2019-02-25T22:58:17.058Z,54.40
2019-02-25T23:00:52.013Z,54.42
2019-02-25T23:03:25.766Z,52.25
2019-02-25T23:05:56.868Z,58.02
2019-02-25T23:08:28.360Z,50.90
2019-02-25T23:10:59.677Z,53.92
2019-02-25T23:13:32.012Z,56.25
2019-02-25T23:16:03.750Z,58.30
2019-02-25T23:18:35.097Z,55.63
2019-02-25T23:21:06.547Z,56.42
2019-02-25T23:23:40.042Z,59.65
2019-02-25T23:26:12.601Z,54.05
2019-02-25T23:28:44.158Z,57.62
2019-02-25T23:31:15.608Z,60.67
2019-02-25T23:33:48.871Z,58.20
2019-02-25T23:36:21.740Z,62.00
2019-02-25T23:38:54.842Z,58.23
2019-02-25T23:41:26.226Z,60.92
2019-02-25T23:43:57.697Z,60.92
2019-02-25T23:46:29.739Z,61.45
2019-02-25T23:49:02.224Z,62.10
2019-02-25T23:51:33.554Z,65.05
2019-02-25T23:54:04.907Z,60.45
2019-02-25T23:56:36.233Z,62.03
2019-02-25T23:59:10.782Z,55.55
